sensor_id;sensor_type;location;lat;lon;timestamp;P1;durP1;ratioP1;P2;durP2;ratioP2
39874;SDS011;25547;52.530;13.194;2022-12-04T00:01:10;83.22;;;32.90;;
39874;SDS011;25547;52.530;13.194;2022-12-04T00:03:41;79.13;;;31.00;;
39874;SDS011;25547;52.530;13.194;2022-12-04T00:06:08;65.20;;;29.13;;
39874;SDS011;25547;52.530;13.194;2022-12-04T00:08:35;71.65;;;27.30;;
39874;SDS011;25547;52.530;13.194;2022-12-04T00:11:02;72.60;;;29.35;;
39874;SDS011;25547;52.530;13.194;2022-12-04T00:13:29;70.18;;;29.15;;
39874;SDS011;25547;52.530;13.194;2022-12-04T00:15:55;73.82;;;28.75;;
39874;SDS011;25547;52.530;13.194;2022-12-04T00:18:21;72.70;;;32.13;;
39874;SDS011;25547;52.530;13.194;2022-12-04T00:20:47;76.05;;;31.17;;
39874;SDS011;25547;52.530;13.194;2022-12-04T00:23:12;78.35;;;32.40;;
39874;SDS011;25547;52.530;13.194;2022-12-04T00:25:38;70.28;;;29.10;;
39874;SDS011;25547;52.530;13.194;2022-12-04T00:28:04;77.13;;;30.17;;
39874;SDS011;25547;52.530;13.194;2022-12-04T00:30:30;87.53;;;32.30;;
39874;SDS011;25547;52.530;13.194;2022-12-04T00:32:55;70.18;;;29.15;;
39874;SDS011;25547;52.530;13.194;2022-12-04T00:35:24;69.95;;;29.70;;
39874;SDS011;25547;52.530;13.194;2022-12-04T00:37:52;76.13;;;28.83;;
39874;SDS011;25547;52.530;13.194;2022-12-04T00:40:20;77.65;;;30.48;;
39874;SDS011;25547;52.530;13.194;2022-12-04T00:42:46;74.07;;;28.63;;
39874;SDS011;25547;52.530;13.194;2022-12-04T00:45:11;78.63;;;31.67;;
39874;SDS011;25547;52.530;13.194;2022-12-04T00:47:37;72.93;;;29.42;;
39874;SDS011;25547;52.530;13.194;2022-12-04T00:50:05;73.53;;;31.00;;
39874;SDS011;25547;52.530;13.194;2022-12-04T00:52:31;74.72;;;29.15;;
39874;SDS011;25547;52.530;13.194;2022-12-04T00:54:59;75.28;;;30.80;;
39874;SDS011;25547;52.530;13.194;2022-12-04T00:57:25;76.45;;;29.33;;
39874;SDS011;25547;52.530;13.194;2022-12-04T00:59:52;80.15;;;34.25;;
39874;SDS011;25547;52.530;13.194;2022-12-04T01:02:18;79.80;;;30.38;;
39874;SDS011;25547;52.530;13.194;2022-12-04T01:04:44;71.75;;;29.08;;
39874;SDS011;25547;52.530;13.194;2022-12-04T01:07:12;75.35;;;29.45;;
39874;SDS011;25547;52.530;13.194;2022-12-04T01:09:37;75.80;;;31.70;;
39874;SDS011;25547;52.530;13.194;2022-12-04T01:12:05;79.38;;;32.22;;
39874;SDS011;25547;52.530;13.194;2022-12-04T01:14:31;80.35;;;31.40;;
39874;SDS011;25547;52.530;13.194;2022-12-04T01:16:57;71.00;;;29.58;;
39874;SDS011;25547;52.530;13.194;2022-12-04T01:19:28;82.30;;;31.17;;
39874;SDS011;25547;52.530;13.194;2022-12-04T01:21:53;77.35;;;31.60;;
39874;SDS011;25547;52.530;13.194;2022-12-04T01:24:19;80.32;;;32.10;;
39874;SDS011;25547;52.530;13.194;2022-12-04T01:26:47;78.32;;;30.27;;
39874;SDS011;25547;52.530;13.194;2022-12-04T01:29:13;74.53;;;30.83;;
39874;SDS011;25547;52.530;13.194;2022-12-04T01:31:38;86.20;;;32.03;;
39874;SDS011;25547;52.530;13.194;2022-12-04T01:34:04;81.93;;;30.67;;
39874;SDS011;25547;52.530;13.194;2022-12-04T01:36:30;77.70;;;30.73;;
39874;SDS011;25547;52.530;13.194;2022-12-04T01:38:56;82.97;;;32.72;;
39874;SDS011;25547;52.530;13.194;2022-12-04T01:41:25;84.65;;;32.65;;
39874;SDS011;25547;52.530;13.194;2022-12-04T01:44:09;80.35;;;32.80;;
39874;SDS011;25547;52.530;13.194;2022-12-04T01:46:49;72.63;;;26.27;;
39874;SDS011;25547;52.530;13.194;2022-12-04T01:52:06;77.40;;;31.13;;
39874;SDS011;25547;52.530;13.194;2022-12-04T01:54:43;80.82;;;32.50;;
39874;SDS011;25547;52.530;13.194;2022-12-04T01:57:13;78.03;;;32.03;;
39874;SDS011;25547;52.530;13.194;2022-12-04T01:59:45;86.55;;;33.65;;
39874;SDS011;25547;52.530;13.194;2022-12-04T02:02:20;91.88;;;33.45;;
39874;SDS011;25547;52.530;13.194;2022-12-04T02:04:52;78.88;;;33.28;;
39874;SDS011;25547;52.530;13.194;2022-12-04T02:07:18;84.25;;;32.67;;
39874;SDS011;25547;52.530;13.194;2022-12-04T02:09:44;81.00;;;33.03;;
39874;SDS011;25547;52.530;13.194;2022-12-04T02:18:31;74.45;;;30.42;;
39874;SDS011;25547;52.530;13.194;2022-12-04T02:26:42;85.45;;;30.90;;
39874;SDS011;25547;52.530;13.194;2022-12-04T02:29:35;81.20;;;33.85;;
39874;SDS011;25547;52.530;13.194;2022-12-04T02:32:36;83.80;;;33.45;;
39874;SDS011;25547;52.530;13.194;2022-12-04T02:35:15;78.32;;;33.17;;
39874;SDS011;25547;52.530;13.194;2022-12-04T02:37:55;86.43;;;32.58;;
39874;SDS011;25547;52.530;13.194;2022-12-04T02:40:29;87.50;;;32.95;;
39874;SDS011;25547;52.530;13.194;2022-12-04T02:43:13;83.07;;;32.05;;
39874;SDS011;25547;52.530;13.194;2022-12-04T02:45:47;98.75;;;35.47;;
39874;SDS011;25547;52.530;13.194;2022-12-04T02:48:22;89.80;;;35.58;;
39874;SDS011;25547;52.530;13.194;2022-12-04T02:50:52;85.10;;;31.33;;
39874;SDS011;25547;52.530;13.194;2022-12-04T02:53:26;84.60;;;33.22;;
39874;SDS011;25547;52.530;13.194;2022-12-04T02:56:02;88.15;;;35.60;;
39874;SDS011;25547;52.530;13.194;2022-12-04T02:58:53;88.35;;;34.08;;
39874;SDS011;25547;52.530;13.194;2022-12-04T03:01:44;89.18;;;35.97;;
39874;SDS011;25547;52.530;13.194;2022-12-04T03:04:22;88.43;;;35.53;;
39874;SDS011;25547;52.530;13.194;2022-12-04T03:06:51;89.88;;;34.15;;
39874;SDS011;25547;52.530;13.194;2022-12-04T03:09:31;94.30;;;36.72;;
39874;SDS011;25547;52.530;13.194;2022-12-04T03:15:04;91.97;;;34.25;;
39874;SDS011;25547;52.530;13.194;2022-12-04T03:20:37;81.93;;;31.25;;
39874;SDS011;25547;52.530;13.194;2022-12-04T03:23:10;91.22;;;34.08;;
39874;SDS011;25547;52.530;13.194;2022-12-04T03:25:59;93.40;;;37.33;;
39874;SDS011;25547;52.530;13.194;2022-12-04T03:28:30;80.57;;;31.30;;
39874;SDS011;25547;52.530;13.194;2022-12-04T03:31:20;97.88;;;35.90;;
39874;SDS011;25547;52.530;13.194;2022-12-04T03:33:54;95.82;;;33.50;;
39874;SDS011;25547;52.530;13.194;2022-12-04T03:36:31;88.00;;;34.20;;
39874;SDS011;25547;52.530;13.194;2022-12-04T03:42:11;86.35;;;32.25;;
39874;SDS011;25547;52.530;13.194;2022-12-04T03:47:29;92.50;;;36.42;;
39874;SDS011;25547;52.530;13.194;2022-12-04T03:52:51;94.35;;;35.17;;
39874;SDS011;25547;52.530;13.194;2022-12-04T03:55:31;86.35;;;34.08;;
39874;SDS011;25547;52.530;13.194;2022-12-04T03:58:03;82.75;;;33.70;;
39874;SDS011;25547;52.530;13.194;2022-12-04T04:00:35;94.07;;;34.08;;
39874;SDS011;25547;52.530;13.194;2022-12-04T04:03:09;90.07;;;34.50;;
39874;SDS011;25547;52.530;13.194;2022-12-04T04:05:35;91.70;;;32.90;;
39874;SDS011;25547;52.530;13.194;2022-12-04T04:08:06;76.32;;;28.95;;
39874;SDS011;25547;52.530;13.194;2022-12-04T04:11:16;83.18;;;34.03;;
39874;SDS011;25547;52.530;13.194;2022-12-04T04:16:48;88.18;;;32.83;;
39874;SDS011;25547;52.530;13.194;2022-12-04T04:19:38;95.63;;;37.35;;
39874;SDS011;25547;52.530;13.194;2022-12-04T04:22:25;84.18;;;30.50;;
39874;SDS011;25547;52.530;13.194;2022-12-04T04:25:10;84.57;;;33.92;;
39874;SDS011;25547;52.530;13.194;2022-12-04T04:27:38;91.85;;;35.67;;
39874;SDS011;25547;52.530;13.194;2022-12-04T04:30:05;91.40;;;34.47;;
39874;SDS011;25547;52.530;13.194;2022-12-04T04:32:44;86.35;;;33.83;;
39874;SDS011;25547;52.530;13.194;2022-12-04T04:35:40;93.63;;;38.58;;
39874;SDS011;25547;52.530;13.194;2022-12-04T04:43:22;90.47;;;35.35;;
39874;SDS011;25547;52.530;13.194;2022-12-04T04:48:57;85.55;;;32.22;;
39874;SDS011;25547;52.530;13.194;2022-12-04T04:51:27;86.97;;;35.88;;
39874;SDS011;25547;52.530;13.194;2022-12-04T04:56:24;82.57;;;30.75;;
39874;SDS011;25547;52.530;13.194;2022-12-04T04:58:50;91.80;;;34.05;;
39874;SDS011;25547;52.530;13.194;2022-12-04T05:01:21;91.90;;;32.65;;
39874;SDS011;25547;52.530;13.194;2022-12-04T05:03:48;85.47;;;32.70;;
39874;SDS011;25547;52.530;13.194;2022-12-04T05:06:17;93.00;;;34.45;;
39874;SDS011;25547;52.530;13.194;2022-12-04T05:08:43;77.00;;;32.95;;
39874;SDS011;25547;52.530;13.194;2022-12-04T05:11:14;92.80;;;34.35;;
39874;SDS011;25547;52.530;13.194;2022-12-04T05:13:42;89.10;;;34.65;;
39874;SDS011;25547;52.530;13.194;2022-12-04T05:16:12;90.57;;;34.90;;
39874;SDS011;25547;52.530;13.194;2022-12-04T05:18:39;84.50;;;35.25;;
39874;SDS011;25547;52.530;13.194;2022-12-04T05:21:12;91.63;;;33.05;;
39874;SDS011;25547;52.530;13.194;2022-12-04T05:23:40;88.20;;;33.40;;
39874;SDS011;25547;52.530;13.194;2022-12-04T05:26:06;90.43;;;32.35;;
39874;SDS011;25547;52.530;13.194;2022-12-04T05:28:32;86.45;;;31.75;;
39874;SDS011;25547;52.530;13.194;2022-12-04T05:30:59;92.18;;;38.83;;
39874;SDS011;25547;52.530;13.194;2022-12-04T05:33:28;75.55;;;32.13;;
39874;SDS011;25547;52.530;13.194;2022-12-04T05:35:55;81.45;;;32.90;;
39874;SDS011;25547;52.530;13.194;2022-12-04T05:40:51;85.13;;;32.67;;
39874;SDS011;25547;52.530;13.194;2022-12-04T05:43:17;86.85;;;32.42;;
39874;SDS011;25547;52.530;13.194;2022-12-04T05:45:45;90.32;;;31.60;;
39874;SDS011;25547;52.530;13.194;2022-12-04T05:48:11;83.30;;;32.25;;
39874;SDS011;25547;52.530;13.194;2022-12-04T05:50:39;90.90;;;37.05;;
39874;SDS011;25547;52.530;13.194;2022-12-04T05:53:07;76.10;;;30.38;;
39874;SDS011;25547;52.530;13.194;2022-12-04T05:55:33;89.03;;;34.90;;
39874;SDS011;25547;52.530;13.194;2022-12-04T05:57:59;79.82;;;30.02;;
39874;SDS011;25547;52.530;13.194;2022-12-04T06:00:27;80.32;;;30.95;;
39874;SDS011;25547;52.530;13.194;2022-12-04T06:02:53;90.30;;;34.88;;
39874;SDS011;25547;52.530;13.194;2022-12-04T06:05:19;77.57;;;31.17;;
39874;SDS011;25547;52.530;13.194;2022-12-04T06:07:45;82.88;;;33.75;;
39874;SDS011;25547;52.530;13.194;2022-12-04T06:10:14;90.88;;;32.35;;
39874;SDS011;25547;52.530;13.194;2022-12-04T06:12:39;76.10;;;30.63;;
39874;SDS011;25547;52.530;13.194;2022-12-04T06:15:05;84.65;;;31.00;;
39874;SDS011;25547;52.530;13.194;2022-12-04T06:17:34;75.97;;;32.03;;
39874;SDS011;25547;52.530;13.194;2022-12-04T06:19:59;86.00;;;31.42;;
39874;SDS011;25547;52.530;13.194;2022-12-04T06:22:27;84.40;;;33.25;;
39874;SDS011;25547;52.530;13.194;2022-12-04T06:24:53;88.63;;;30.63;;
39874;SDS011;25547;52.530;13.194;2022-12-04T06:27:18;81.82;;;29.90;;
39874;SDS011;25547;52.530;13.194;2022-12-04T06:29:44;83.53;;;33.15;;
39874;SDS011;25547;52.530;13.194;2022-12-04T06:32:12;88.28;;;31.40;;
39874;SDS011;25547;52.530;13.194;2022-12-04T06:34:38;80.05;;;32.30;;
39874;SDS011;25547;52.530;13.194;2022-12-04T06:37:04;76.80;;;32.83;;
39874;SDS011;25547;52.530;13.194;2022-12-04T06:39:29;84.65;;;30.95;;
39874;SDS011;25547;52.530;13.194;2022-12-04T06:41:55;89.80;;;35.35;;
39874;SDS011;25547;52.530;13.194;2022-12-04T06:44:21;92.55;;;34.67;;
39874;SDS011;25547;52.530;13.194;2022-12-04T06:46:47;82.25;;;34.92;;
39874;SDS011;25547;52.530;13.194;2022-12-04T06:49:13;79.03;;;32.20;;
39874;SDS011;25547;52.530;13.194;2022-12-04T06:51:41;86.47;;;32.70;;
39874;SDS011;25547;52.530;13.194;2022-12-04T06:54:07;82.30;;;32.17;;
39874;SDS011;25547;52.530;13.194;2022-12-04T06:56:34;88.35;;;33.38;;
39874;SDS011;25547;52.530;13.194;2022-12-04T06:59:03;81.03;;;29.77;;
39874;SDS011;25547;52.530;13.194;2022-12-04T07:01:30;79.93;;;30.40;;
39874;SDS011;25547;52.530;13.194;2022-12-04T07:03:57;84.07;;;33.28;;
39874;SDS011;25547;52.530;13.194;2022-12-04T07:06:26;80.55;;;31.42;;
39874;SDS011;25547;52.530;13.194;2022-12-04T07:08:53;76.82;;;30.63;;
39874;SDS011;25547;52.530;13.194;2022-12-04T07:11:28;84.07;;;33.22;;
39874;SDS011;25547;52.530;13.194;2022-12-04T07:13:56;85.88;;;31.73;;
39874;SDS011;25547;52.530;13.194;2022-12-04T07:16:23;81.57;;;29.88;;
39874;SDS011;25547;52.530;13.194;2022-12-04T07:18:52;69.22;;;28.50;;
39874;SDS011;25547;52.530;13.194;2022-12-04T07:21:19;83.75;;;32.28;;
39874;SDS011;25547;52.530;13.194;2022-12-04T07:23:53;80.82;;;30.85;;
39874;SDS011;25547;52.530;13.194;2022-12-04T07:26:22;77.40;;;32.28;;
39874;SDS011;25547;52.530;13.194;2022-12-04T07:28:48;79.45;;;31.83;;
39874;SDS011;25547;52.530;13.194;2022-12-04T07:31:18;66.93;;;29.45;;
39874;SDS011;25547;52.530;13.194;2022-12-04T07:33:45;75.38;;;28.88;;
39874;SDS011;25547;52.530;13.194;2022-12-04T07:36:13;78.85;;;28.88;;
39874;SDS011;25547;52.530;13.194;2022-12-04T07:38:40;71.30;;;28.10;;
39874;SDS011;25547;52.530;13.194;2022-12-04T07:41:10;88.95;;;30.77;;
39874;SDS011;25547;52.530;13.194;2022-12-04T07:43:36;74.88;;;31.67;;
39874;SDS011;25547;52.530;13.194;2022-12-04T07:46:06;80.07;;;31.38;;
39874;SDS011;25547;52.530;13.194;2022-12-04T07:48:41;72.65;;;29.70;;
39874;SDS011;25547;52.530;13.194;2022-12-04T07:51:08;72.05;;;29.15;;
39874;SDS011;25547;52.530;13.194;2022-12-04T07:53:46;72.82;;;28.27;;
39874;SDS011;25547;52.530;13.194;2022-12-04T07:56:18;71.43;;;29.02;;
39874;SDS011;25547;52.530;13.194;2022-12-04T07:58:46;75.63;;;28.98;;
39874;SDS011;25547;52.530;13.194;2022-12-04T08:01:13;78.65;;;29.95;;
39874;SDS011;25547;52.530;13.194;2022-12-04T08:03:47;76.00;;;28.98;;
39874;SDS011;25547;52.530;13.194;2022-12-04T08:06:15;76.68;;;33.80;;
39874;SDS011;25547;52.530;13.194;2022-12-04T08:08:42;69.03;;;28.98;;
39874;SDS011;25547;52.530;13.194;2022-12-04T08:11:12;77.50;;;29.15;;
39874;SDS011;25547;52.530;13.194;2022-12-04T08:13:40;68.35;;;29.13;;
39874;SDS011;25547;52.530;13.194;2022-12-04T08:16:09;69.68;;;25.77;;
39874;SDS011;25547;52.530;13.194;2022-12-04T08:18:40;77.50;;;32.70;;
39874;SDS011;25547;52.530;13.194;2022-12-04T08:21:11;75.45;;;31.00;;
39874;SDS011;25547;52.530;13.194;2022-12-04T08:23:41;69.53;;;29.15;;
39874;SDS011;25547;52.530;13.194;2022-12-04T08:26:08;73.65;;;30.38;;
39874;SDS011;25547;52.530;13.194;2022-12-04T08:28:35;76.60;;;31.58;;
39874;SDS011;25547;52.530;13.194;2022-12-04T08:31:05;77.95;;;32.03;;
39874;SDS011;25547;52.530;13.194;2022-12-04T08:33:32;78.20;;;28.35;;
39874;SDS011;25547;52.530;13.194;2022-12-04T08:35:59;70.28;;;28.38;;
39874;SDS011;25547;52.530;13.194;2022-12-04T08:38:25;70.50;;;26.80;;
39874;SDS011;25547;52.530;13.194;2022-12-04T08:40:50;69.78;;;27.70;;
39874;SDS011;25547;52.530;13.194;2022-12-04T08:43:19;70.28;;;29.27;;
39874;SDS011;25547;52.530;13.194;2022-12-04T08:45:53;70.25;;;30.25;;
39874;SDS011;25547;52.530;13.194;2022-12-04T08:48:19;101.85;;;38.40;;
39874;SDS011;25547;52.530;13.194;2022-12-04T08:50:45;88.85;;;36.65;;
39874;SDS011;25547;52.530;13.194;2022-12-04T08:53:11;70.40;;;27.35;;
39874;SDS011;25547;52.530;13.194;2022-12-04T08:55:37;73.15;;;31.08;;
39874;SDS011;25547;52.530;13.194;2022-12-04T08:58:02;72.50;;;27.40;;
39874;SDS011;25547;52.530;13.194;2022-12-04T09:00:28;71.78;;;27.35;;
39874;SDS011;25547;52.530;13.194;2022-12-04T09:02:55;72.90;;;29.88;;
39874;SDS011;25547;52.530;13.194;2022-12-04T09:05:21;75.43;;;28.70;;
39874;SDS011;25547;52.530;13.194;2022-12-04T09:07:47;72.13;;;28.23;;
39874;SDS011;25547;52.530;13.194;2022-12-04T09:10:15;70.88;;;27.45;;
39874;SDS011;25547;52.530;13.194;2022-12-04T09:12:41;69.05;;;27.17;;
39874;SDS011;25547;52.530;13.194;2022-12-04T09:15:07;74.28;;;27.02;;
39874;SDS011;25547;52.530;13.194;2022-12-04T09:17:33;72.95;;;28.88;;
39874;SDS011;25547;52.530;13.194;2022-12-04T09:20:00;75.05;;;28.75;;
39874;SDS011;25547;52.530;13.194;2022-12-04T09:22:27;66.32;;;26.98;;
39874;SDS011;25547;52.530;13.194;2022-12-04T09:24:55;66.78;;;28.17;;
39874;SDS011;25547;52.530;13.194;2022-12-04T09:27:21;65.95;;;28.65;;
39874;SDS011;25547;52.530;13.194;2022-12-04T09:29:46;72.82;;;27.60;;
39874;SDS011;25547;52.530;13.194;2022-12-04T09:32:14;78.03;;;26.65;;
39874;SDS011;25547;52.530;13.194;2022-12-04T09:34:40;80.28;;;29.45;;
39874;SDS011;25547;52.530;13.194;2022-12-04T09:37:06;73.95;;;28.23;;
39874;SDS011;25547;52.530;13.194;2022-12-04T09:39:31;72.97;;;30.05;;
39874;SDS011;25547;52.530;13.194;2022-12-04T09:42:01;71.57;;;29.52;;
39874;SDS011;25547;52.530;13.194;2022-12-04T09:44:38;73.05;;;26.75;;
39874;SDS011;25547;52.530;13.194;2022-12-04T09:47:12;75.53;;;27.92;;
39874;SDS011;25547;52.530;13.194;2022-12-04T09:49:48;69.47;;;32.08;;
39874;SDS011;25547;52.530;13.194;2022-12-04T09:57:56;84.30;;;29.02;;
39874;SDS011;25547;52.530;13.194;2022-12-04T10:00:26;78.97;;;31.23;;
39874;SDS011;25547;52.530;13.194;2022-12-04T10:02:56;74.72;;;30.05;;
39874;SDS011;25547;52.530;13.194;2022-12-04T10:05:46;80.95;;;30.00;;
39874;SDS011;25547;52.530;13.194;2022-12-04T10:08:34;62.97;;;26.85;;
39874;SDS011;25547;52.530;13.194;2022-12-04T10:11:06;74.60;;;27.52;;
39874;SDS011;25547;52.530;13.194;2022-12-04T10:16:45;67.22;;;29.35;;
39874;SDS011;25547;52.530;13.194;2022-12-04T10:24:45;75.78;;;28.73;;
39874;SDS011;25547;52.530;13.194;2022-12-04T10:32:47;73.32;;;28.17;;
39874;SDS011;25547;52.530;13.194;2022-12-04T10:40:59;72.88;;;28.98;;
39874;SDS011;25547;52.530;13.194;2022-12-04T10:46:09;73.85;;;29.15;;
39874;SDS011;25547;52.530;13.194;2022-12-04T10:48:42;65.18;;;26.17;;
39874;SDS011;25547;52.530;13.194;2022-12-04T10:51:13;73.93;;;28.75;;
39874;SDS011;25547;52.530;13.194;2022-12-04T10:53:41;71.68;;;27.85;;
39874;SDS011;25547;52.530;13.194;2022-12-04T10:56:12;67.13;;;26.83;;
39874;SDS011;25547;52.530;13.194;2022-12-04T10:58:53;78.22;;;31.60;;
39874;SDS011;25547;52.530;13.194;2022-12-04T11:01:39;64.45;;;26.92;;
39874;SDS011;25547;52.530;13.194;2022-12-04T11:04:07;75.05;;;26.83;;
39874;SDS011;25547;52.530;13.194;2022-12-04T11:06:42;67.95;;;27.60;;
39874;SDS011;25547;52.530;13.194;2022-12-04T11:09:18;73.22;;;27.08;;
39874;SDS011;25547;52.530;13.194;2022-12-04T11:11:51;77.20;;;27.08;;
39874;SDS011;25547;52.530;13.194;2022-12-04T11:14:20;65.40;;;25.35;;
39874;SDS011;25547;52.530;13.194;2022-12-04T11:16:48;79.82;;;28.30;;
39874;SDS011;25547;52.530;13.194;2022-12-04T11:19:25;77.72;;;29.73;;
39874;SDS011;25547;52.530;13.194;2022-12-04T11:21:53;66.30;;;26.25;;
39874;SDS011;25547;52.530;13.194;2022-12-04T11:24:38;62.58;;;25.48;;
39874;SDS011;25547;52.530;13.194;2022-12-04T11:27:07;74.28;;;28.33;;
39874;SDS011;25547;52.530;13.194;2022-12-04T11:29:48;77.68;;;29.50;;
39874;SDS011;25547;52.530;13.194;2022-12-04T11:32:22;70.72;;;26.40;;
39874;SDS011;25547;52.530;13.194;2022-12-04T11:34:50;65.43;;;26.90;;
39874;SDS011;25547;52.530;13.194;2022-12-04T11:37:25;66.68;;;25.67;;
39874;SDS011;25547;52.530;13.194;2022-12-04T11:39:58;73.57;;;27.42;;
39874;SDS011;25547;52.530;13.194;2022-12-04T11:42:28;69.50;;;28.85;;
39874;SDS011;25547;52.530;13.194;2022-12-04T11:47:25;69.28;;;26.50;;
39874;SDS011;25547;52.530;13.194;2022-12-04T11:49:56;71.75;;;26.63;;
39874;SDS011;25547;52.530;13.194;2022-12-04T12:03:32;67.50;;;27.00;;
39874;SDS011;25547;52.530;13.194;2022-12-04T12:06:15;60.22;;;24.88;;
39874;SDS011;25547;52.530;13.194;2022-12-04T12:14:11;61.83;;;25.50;;
39874;SDS011;25547;52.530;13.194;2022-12-04T12:30:21;65.10;;;27.90;;
39874;SDS011;25547;52.530;13.194;2022-12-04T12:33:06;64.82;;;26.30;;
39874;SDS011;25547;52.530;13.194;2022-12-04T12:38:36;66.60;;;27.67;;
39874;SDS011;25547;52.530;13.194;2022-12-04T12:43:48;63.88;;;26.85;;
39874;SDS011;25547;52.530;13.194;2022-12-04T12:46:33;71.45;;;28.23;;
39874;SDS011;25547;52.530;13.194;2022-12-04T12:52:14;77.72;;;30.10;;
39874;SDS011;25547;52.530;13.194;2022-12-04T12:54:52;67.00;;;27.98;;
39874;SDS011;25547;52.530;13.194;2022-12-04T12:57:33;65.78;;;26.90;;
39874;SDS011;25547;52.530;13.194;2022-12-04T13:00:06;57.95;;;24.27;;
39874;SDS011;25547;52.530;13.194;2022-12-04T13:05:38;66.45;;;24.08;;
39874;SDS011;25547;52.530;13.194;2022-12-04T13:08:16;58.78;;;24.38;;
39874;SDS011;25547;52.530;13.194;2022-12-04T13:10:52;63.53;;;25.45;;
39874;SDS011;25547;52.530;13.194;2022-12-04T13:13:35;65.55;;;25.60;;
39874;SDS011;25547;52.530;13.194;2022-12-04T13:16:30;69.40;;;25.42;;
39874;SDS011;25547;52.530;13.194;2022-12-04T13:45:43;72.45;;;25.30;;
39874;SDS011;25547;52.530;13.194;2022-12-04T13:48:10;60.75;;;24.73;;
39874;SDS011;25547;52.530;13.194;2022-12-04T13:50:37;63.10;;;26.77;;
39874;SDS011;25547;52.530;13.194;2022-12-04T13:53:03;63.35;;;26.90;;
39874;SDS011;25547;52.530;13.194;2022-12-04T14:00:39;64.10;;;26.70;;
39874;SDS011;25547;52.530;13.194;2022-12-04T14:03:28;65.72;;;26.55;;
39874;SDS011;25547;52.530;13.194;2022-12-04T14:05:59;66.70;;;26.05;;
39874;SDS011;25547;52.530;13.194;2022-12-04T14:08:34;71.03;;;27.65;;
39874;SDS011;25547;52.530;13.194;2022-12-04T14:11:14;68.47;;;27.40;;
39874;SDS011;25547;52.530;13.194;2022-12-04T14:13:43;63.55;;;25.83;;
39874;SDS011;25547;52.530;13.194;2022-12-04T14:16:18;67.60;;;26.02;;
39874;SDS011;25547;52.530;13.194;2022-12-04T14:19:07;64.22;;;24.90;;
39874;SDS011;25547;52.530;13.194;2022-12-04T14:21:48;63.80;;;26.13;;
39874;SDS011;25547;52.530;13.194;2022-12-04T14:24:15;86.90;;;32.05;;
39874;SDS011;25547;52.530;13.194;2022-12-04T14:26:51;62.88;;;25.90;;
39874;SDS011;25547;52.530;13.194;2022-12-04T14:29:31;56.67;;;24.20;;
39874;SDS011;25547;52.530;13.194;2022-12-04T14:32:12;64.70;;;25.65;;
39874;SDS011;25547;52.530;13.194;2022-12-04T14:34:53;70.20;;;25.48;;
39874;SDS011;25547;52.530;13.194;2022-12-04T14:40:03;64.45;;;26.15;;
39874;SDS011;25547;52.530;13.194;2022-12-04T14:42:37;68.28;;;26.13;;
39874;SDS011;25547;52.530;13.194;2022-12-04T14:45:05;65.38;;;24.77;;
39874;SDS011;25547;52.530;13.194;2022-12-04T14:59:16;69.65;;;27.40;;
39874;SDS011;25547;52.530;13.194;2022-12-04T15:01:44;70.18;;;27.05;;
39874;SDS011;25547;52.530;13.194;2022-12-04T15:06:55;72.72;;;27.92;;
39874;SDS011;25547;52.530;13.194;2022-12-04T15:09:22;92.50;;;33.30;;
39874;SDS011;25547;52.530;13.194;2022-12-04T15:15:07;75.43;;;27.95;;
39874;SDS011;25547;52.530;13.194;2022-12-04T15:20:39;77.32;;;28.23;;
39874;SDS011;25547;52.530;13.194;2022-12-04T15:23:27;78.75;;;26.40;;
39874;SDS011;25547;52.530;13.194;2022-12-04T15:26:23;71.60;;;30.13;;
39874;SDS011;25547;52.530;13.194;2022-12-04T15:28:55;76.18;;;27.25;;
39874;SDS011;25547;52.530;13.194;2022-12-04T15:31:25;87.57;;;32.30;;
39874;SDS011;25547;52.530;13.194;2022-12-04T15:33:56;93.75;;;32.35;;
39874;SDS011;25547;52.530;13.194;2022-12-04T15:39:25;79.95;;;28.35;;
39874;SDS011;25547;52.530;13.194;2022-12-04T15:42:02;82.43;;;30.55;;
39874;SDS011;25547;52.530;13.194;2022-12-04T15:44:31;79.43;;;27.55;;
39874;SDS011;25547;52.530;13.194;2022-12-04T15:47:02;92.75;;;30.55;;
39874;SDS011;25547;52.530;13.194;2022-12-04T15:49:40;81.40;;;30.15;;
39874;SDS011;25547;52.530;13.194;2022-12-04T15:52:27;89.50;;;29.73;;
39874;SDS011;25547;52.530;13.194;2022-12-04T15:54:58;85.32;;;30.90;;
39874;SDS011;25547;52.530;13.194;2022-12-04T15:57:40;82.43;;;29.50;;
39874;SDS011;25547;52.530;13.194;2022-12-04T16:02:45;84.20;;;28.85;;
39874;SDS011;25547;52.530;13.194;2022-12-04T16:05:33;94.65;;;31.40;;
39874;SDS011;25547;52.530;13.194;2022-12-04T16:08:21;90.93;;;30.92;;
39874;SDS011;25547;52.530;13.194;2022-12-04T16:11:05;88.22;;;29.23;;
39874;SDS011;25547;52.530;13.194;2022-12-04T16:13:46;70.13;;;24.92;;
39874;SDS011;25547;52.530;13.194;2022-12-04T16:16:15;81.80;;;28.08;;
39874;SDS011;25547;52.530;13.194;2022-12-04T16:18:45;81.10;;;30.60;;
39874;SDS011;25547;52.530;13.194;2022-12-04T16:21:15;90.15;;;31.52;;
39874;SDS011;25547;52.530;13.194;2022-12-04T16:23:42;85.07;;;30.27;;
39874;SDS011;25547;52.530;13.194;2022-12-04T16:26:13;87.78;;;32.55;;
39874;SDS011;25547;52.530;13.194;2022-12-04T16:31:06;86.20;;;29.02;;
39874;SDS011;25547;52.530;13.194;2022-12-04T16:33:34;92.65;;;31.02;;
39874;SDS011;25547;52.530;13.194;2022-12-04T16:36:00;98.68;;;34.22;;
39874;SDS011;25547;52.530;13.194;2022-12-04T16:38:26;84.22;;;29.63;;
39874;SDS011;25547;52.530;13.194;2022-12-04T16:40:52;89.20;;;31.08;;
39874;SDS011;25547;52.530;13.194;2022-12-04T16:43:17;98.70;;;34.70;;
39874;SDS011;25547;52.530;13.194;2022-12-04T16:45:45;102.03;;;31.27;;
39874;SDS011;25547;52.530;13.194;2022-12-04T16:48:13;86.80;;;32.17;;
39874;SDS011;25547;52.530;13.194;2022-12-04T16:50:39;97.32;;;33.25;;
39874;SDS011;25547;52.530;13.194;2022-12-04T16:53:05;102.90;;;32.67;;
39874;SDS011;25547;52.530;13.194;2022-12-04T16:55:36;98.68;;;32.78;;
39874;SDS011;25547;52.530;13.194;2022-12-04T17:00:28;101.55;;;32.33;;
39874;SDS011;25547;52.530;13.194;2022-12-04T17:02:54;98.63;;;33.97;;
39874;SDS011;25547;52.530;13.194;2022-12-04T17:05:22;96.40;;;33.38;;
39874;SDS011;25547;52.530;13.194;2022-12-04T17:07:52;104.20;;;35.13;;
39874;SDS011;25547;52.530;13.194;2022-12-04T17:10:19;97.35;;;32.85;;
39874;SDS011;25547;52.530;13.194;2022-12-04T17:12:46;107.40;;;33.38;;
39874;SDS011;25547;52.530;13.194;2022-12-04T17:15:12;101.38;;;33.92;;
39874;SDS011;25547;52.530;13.194;2022-12-04T17:17:41;99.88;;;31.88;;
39874;SDS011;25547;52.530;13.194;2022-12-04T17:20:11;100.70;;;35.15;;
39874;SDS011;25547;52.530;13.194;2022-12-04T17:22:39;100.28;;;34.35;;
39874;SDS011;25547;52.530;13.194;2022-12-04T17:25:05;116.68;;;36.72;;
39874;SDS011;25547;52.530;13.194;2022-12-04T17:27:31;105.15;;;34.83;;
39874;SDS011;25547;52.530;13.194;2022-12-04T17:30:00;97.75;;;31.65;;
39874;SDS011;25547;52.530;13.194;2022-12-04T17:32:29;100.38;;;32.22;;
39874;SDS011;25547;52.530;13.194;2022-12-04T17:34:55;109.10;;;34.97;;